createdAt,value
2022-10-02T00:02:38.390Z,11.05
2022-10-02T00:12:38.416Z,10.78
2022-10-02T00:22:38.669Z,10.6
2022-10-02T00:32:38.408Z,10.31
2022-10-02T00:42:38.374Z,10.16
2022-10-02T00:52:38.386Z,9.88
2022-10-02T01:12:38.374Z,9.67
2022-10-02T01:22:38.340Z,9.55
2022-10-02T01:32:38.368Z,9.22
2022-10-02T01:42:38.348Z,9.08
2022-10-02T01:52:38.365Z,8.95
2022-10-02T02:02:38.370Z,8.76
2022-10-02T02:12:38.386Z,8.58
2022-10-02T02:22:38.319Z,8.49
2022-10-02T02:32:38.351Z,8.39
2022-10-02T02:42:38.319Z,8.23
2022-10-02T02:52:38.355Z,8.22
2022-10-02T03:02:38.353Z,8.01
2022-10-02T03:12:38.327Z,7.72
2022-10-02T03:22:38.351Z,7.63
2022-10-02T03:32:38.346Z,7.86
2022-10-02T03:42:38.312Z,7.75
2022-10-02T03:52:38.327Z,7.77
2022-10-02T04:02:38.286Z,7.7
2022-10-02T04:12:38.310Z,7.69
2022-10-02T04:22:38.283Z,7.58
2022-10-02T04:32:38.329Z,7.5
2022-10-02T04:42:38.304Z,7.37
2022-10-02T04:52:38.322Z,7.2
2022-10-02T05:02:38.286Z,7
2022-10-02T05:12:38.322Z,6.98
2022-10-02T05:22:38.268Z,6.87
2022-10-02T05:32:38.330Z,6.9
2022-10-02T05:42:42.842Z,7.05
2022-10-02T05:52:38.296Z,7.24
2022-10-02T06:02:39.543Z,7.47
2022-10-02T06:12:38.306Z,7.67
2022-10-02T06:22:38.292Z,7.99
2022-10-02T06:32:38.289Z,8.38
2022-10-02T06:42:38.269Z,8.95
2022-10-02T06:52:38.528Z,9.46
2022-10-02T07:02:38.286Z,10.01
2022-10-02T07:12:38.253Z,10.49
2022-10-02T07:22:44.810Z,10.9
2022-10-02T07:32:38.461Z,11.21
2022-10-02T07:42:38.432Z,11.74
2022-10-02T07:52:38.272Z,12.23
2022-10-02T08:02:38.246Z,12.58
2022-10-02T08:12:38.229Z,13.18
2022-10-02T08:22:38.202Z,13.78
2022-10-02T08:32:38.242Z,14.06
2022-10-02T08:42:38.194Z,14.32
2022-10-02T08:52:38.239Z,15.06
2022-10-02T09:02:38.212Z,15.24
2022-10-02T09:12:38.189Z,15.09
2022-10-02T09:22:38.163Z,15.54
2022-10-02T09:32:38.168Z,15.87
2022-10-02T09:42:38.156Z,16.33
2022-10-02T09:52:41.997Z,16.52
2022-10-02T10:02:38.190Z,16.65
2022-10-02T10:12:38.151Z,16.45
2022-10-02T10:22:38.115Z,16.52
2022-10-02T10:32:38.170Z,16.17
2022-10-02T10:42:56.296Z,16.27
2022-10-02T10:52:38.154Z,17.04
2022-10-02T11:02:38.127Z,18.57
2022-10-02T11:12:38.105Z,19.75
2022-10-02T11:22:38.078Z,20.17
2022-10-02T11:32:38.096Z,19.79
2022-10-02T11:42:38.034Z,20.03
2022-10-02T11:52:38.056Z,19.4
2022-10-02T12:02:38.094Z,19.07
2022-10-02T12:12:38.033Z,18.4
2022-10-02T12:22:38.023Z,18.4
2022-10-02T12:32:38.027Z,18.23
2022-10-02T12:42:37.996Z,18.14
2022-10-02T12:52:38.028Z,18.3
2022-10-02T13:02:59.571Z,18.33
2022-10-02T13:12:38.002Z,18.45
2022-10-02T13:22:37.990Z,18.43
2022-10-02T13:32:37.992Z,18.7
2022-10-02T13:42:37.947Z,19.03
2022-10-02T13:52:37.973Z,19.16
2022-10-02T14:02:37.930Z,19.03
2022-10-02T14:12:38.113Z,18.73
2022-10-02T14:22:37.898Z,18.65
2022-10-02T14:32:37.904Z,18.48
2022-10-02T14:42:37.878Z,18.32
2022-10-02T14:52:37.900Z,18.21
2022-10-02T15:02:37.879Z,18.05
2022-10-02T15:12:37.887Z,18
2022-10-02T15:22:37.849Z,17.82
2022-10-02T15:32:37.871Z,17.51
2022-10-02T15:42:37.841Z,17.17
2022-10-02T15:52:37.865Z,16.89
2022-10-02T16:02:37.852Z,16.55
2022-10-02T16:12:37.832Z,16.34
2022-10-02T16:22:37.805Z,16.12
2022-10-02T16:32:37.824Z,15.94
2022-10-02T16:42:37.812Z,15.9
2022-10-02T16:52:37.807Z,15.71
2022-10-02T17:02:37.831Z,15.51
2022-10-02T17:12:37.780Z,14.95
2022-10-02T17:22:46.537Z,14.52
2022-10-02T17:32:37.763Z,14.18
2022-10-02T17:42:37.759Z,13.8
2022-10-02T17:52:37.760Z,13.54
2022-10-02T18:02:37.789Z,13.3
2022-10-02T18:12:37.839Z,13
2022-10-02T18:22:37.756Z,12.92
2022-10-02T18:32:37.795Z,12.58
2022-10-02T18:42:37.694Z,12.29
2022-10-02T18:52:37.718Z,12.35
2022-10-02T19:02:37.686Z,12.46
2022-10-02T19:12:37.712Z,12.48
2022-10-02T19:22:37.725Z,12.39
2022-10-02T19:32:37.679Z,12.37
2022-10-02T19:42:37.651Z,12.34
2022-10-02T19:52:37.693Z,12.13
2022-10-02T20:02:37.726Z,12.21
2022-10-02T20:12:37.670Z,12.28
2022-10-02T20:22:37.647Z,12.38
2022-10-02T20:32:37.659Z,12.43
2022-10-02T20:42:37.667Z,12.4
2022-10-02T20:52:37.728Z,12.39
2022-10-02T21:02:37.685Z,12.48
2022-10-02T21:12:37.619Z,12.39
2022-10-02T21:22:37.602Z,12.35
2022-10-02T21:32:37.660Z,12.21
2022-10-02T21:42:37.606Z,12.14
2022-10-02T21:52:37.600Z,11.99
2022-10-02T22:02:37.591Z,11.77
2022-10-02T22:12:37.626Z,11.43
2022-10-02T22:22:37.559Z,11.56
2022-10-02T22:32:37.610Z,11.58
2022-10-02T22:42:37.574Z,11.75
2022-10-02T22:52:37.583Z,11.83
2022-10-02T23:02:37.619Z,11.87
2022-10-02T23:12:37.567Z,11.82
2022-10-02T23:22:37.546Z,11.86
2022-10-02T23:32:37.575Z,11.8
2022-10-02T23:42:37.520Z,11.69
2022-10-02T23:52:37.545Z,11.64
